Terminal Aerodrome Forecast
Issued by NWS

Home | Current Version | Previous Version | Text Only | Print | Product List | Glossary On
Versions: 1 2 3 4 5 6 7 8 9 10 11 12 13 14 15 16 17 18 19 20
000
FTUS46 KSEW 291638 AAF
TAFBFI
TAF AMD
KBFI 291638Z 2917/3012 16008KT P6SM FEW020 BKN060
     FM291800 17013G20KT P6SM SCT040 OVC060
     FM291900 20015G25KT P6SM -SHRA BKN030 OVC040
     FM292100 20015G25KT P6SM -SHRA SCT030 BKN040 OVC050
     FM300100 18010KT P6SM -RA BKN028 OVC040=

USA.gov is the U.S. government's official web portal to all federal, state and local government web resources and services.